Time,TemperatureF,DewpointF,PressureIn,WindDirection,WindDirectionDegrees,WindSpeedMPH,WindSpeedGustMPH,Humidity,HourlyPrecipIn,Conditions,Clouds,dailyrainin,SoftwareType,DateUTC
2013-03-08 00:11:00,25.6,24.0,30.34,NW,308,0.0,0.0,95,0.00,,,0.00,weatherlink.com 1.10,2013-03-08 05:11:00,
2013-03-08 00:26:00,25.3,24.0,30.34,NW,308,0.0,0.0,95,0.00,,,0.00,weatherlink.com 1.10,2013-03-08 05:26:00,
2013-03-08 00:41:00,25.1,24.0,30.33,NW,307,0.0,0.0,96,0.00,,,0.00,weatherlink.com 1.10,2013-03-08 05:41:00,
2013-03-08 00:56:00,25.6,25.0,30.34,WSW,243,0.0,0.0,96,0.00,,,0.00,weatherlink.com 1.10,2013-03-08 05:56:00,
2013-03-08 01:12:00,25.1,24.0,30.34,WSW,244,0.0,0.0,96,0.00,,,0.00,weatherlink.com 1.10,2013-03-08 06:12:00,
2013-03-08 01:27:00,24.5,24.0,30.34,WSW,243,0.0,0.0,96,0.00,,,0.00,weatherlink.com 1.10,2013-03-08 06:27:00,
2013-03-08 01:42:00,23.9,23.0,30.35,WSW,243,0.0,0.0,96,0.00,,,0.00,weatherlink.com 1.10,2013-03-08 06:42:00,
2013-03-08 01:57:00,24.2,24.0,30.35,WSW,243,0.0,0.0,97,0.00,,,0.00,weatherlink.com 1.10,2013-03-08 06:57:00,
2013-03-08 02:12:00,23.8,23.0,30.34,WSW,243,0.0,0.0,97,0.00,,,0.00,weatherlink.com 1.10,2013-03-08 07:12:00,
2013-03-08 02:27:00,23.6,23.0,30.35,WSW,243,0.0,0.0,97,0.00,,,0.00,weatherlink.com 1.10,2013-03-08 07:27:00,
2013-03-08 02:42:00,23.2,23.0,30.34,WSW,243,0.0,0.0,97,0.00,,,0.00,weatherlink.com 1.10,2013-03-08 07:42:00,
2013-03-08 02:57:00,23.2,23.0,30.34,WSW,243,0.0,0.0,97,0.00,,,0.00,weatherlink.com 1.10,2013-03-08 07:57:00,
2013-03-08 03:12:00,23.2,23.0,30.33,WSW,243,0.0,0.0,97,0.00,,,0.00,weatherlink.com 1.10,2013-03-08 08:12:00,
2013-03-08 03:27:00,23.0,22.0,30.33,WSW,243,0.0,0.0,97,0.00,,,0.00,weatherlink.com 1.10,2013-03-08 08:27:00,
2013-03-08 03:42:00,23.1,22.0,30.34,WSW,243,0.0,0.0,97,0.00,,,0.00,weatherlink.com 1.10,2013-03-08 08:42:00,
2013-03-08 03:57:00,23.4,23.0,30.34,WSW,243,0.0,0.0,98,0.00,,,0.00,weatherlink.com 1.10,2013-03-08 08:57:00,
2013-03-08 04:12:00,23.1,22.0,30.34,WSW,243,0.0,0.0,97,0.00,,,0.00,weatherlink.com 1.10,2013-03-08 09:12:00,
2013-03-08 04:27:00,23.8,23.0,30.34,WSW,243,0.0,1.0,98,0.00,,,0.00,weatherlink.com 1.10,2013-03-08 09:27:00,
2013-03-08 04:42:00,23.4,23.0,30.35,WSW,243,0.0,0.0,97,0.00,,,0.00,weatherlink.com 1.10,2013-03-08 09:42:00,
2013-03-08 04:57:00,23.1,22.0,30.35,WSW,243,0.0,0.0,97,0.00,,,0.00,weatherlink.com 1.10,2013-03-08 09:57:00,
2013-03-08 05:12:00,23.5,23.0,30.35,WSW,243,0.0,0.0,97,0.00,,,0.00,weatherlink.com 1.10,2013-03-08 10:12:00,
2013-03-08 05:27:00,23.2,22.0,30.35,WSW,243,0.0,0.0,96,0.00,,,0.00,weatherlink.com 1.10,2013-03-08 10:27:00,
2013-03-08 05:42:00,22.9,22.0,30.36,WSW,243,0.0,0.0,96,0.00,,,0.00,weatherlink.com 1.10,2013-03-08 10:42:00,
2013-03-08 05:57:00,22.7,22.0,30.36,WSW,243,0.0,0.0,96,0.00,,,0.00,weatherlink.com 1.10,2013-03-08 10:57:00,
2013-03-08 06:12:00,22.3,21.0,30.36,WSW,243,0.0,0.0,96,0.00,,,0.00,weatherlink.com 1.10,2013-03-08 11:12:00,
2013-03-08 06:27:00,22.1,21.0,30.37,WSW,243,0.0,0.0,96,0.00,,,0.00,weatherlink.com 1.10,2013-03-08 11:27:00,
2013-03-08 06:42:00,22.2,21.0,30.37,WSW,243,0.0,0.0,96,0.00,,,0.00,weatherlink.com 1.10,2013-03-08 11:42:00,
2013-03-08 06:57:00,22.0,21.0,30.37,WSW,243,0.0,0.0,96,0.00,,,0.00,weatherlink.com 1.10,2013-03-08 11:57:00,
2013-03-08 07:12:00,22.1,21.0,30.36,WSW,243,0.0,0.0,97,0.00,,,0.00,weatherlink.com 1.10,2013-03-08 12:12:00,
2013-03-08 07:27:00,22.6,22.0,30.37,WSW,243,0.0,0.0,97,0.00,,,0.00,weatherlink.com 1.10,2013-03-08 12:27:00,
2013-03-08 07:42:00,24.6,24.0,30.38,NE,47,0.0,0.0,97,0.00,,,0.00,weatherlink.com 1.10,2013-03-08 12:42:00,
2013-03-08 07:57:00,27.1,26.0,30.39,NE,47,0.0,0.0,94,0.00,,,0.00,weatherlink.com 1.10,2013-03-08 12:57:00,
2013-03-08 08:12:00,29.0,27.0,30.39,East,79,0.0,1.0,90,0.00,,,0.00,weatherlink.com 1.10,2013-03-08 13:12:00,
2013-03-08 08:27:00,30.9,27.0,30.39,East,91,0.0,1.0,85,0.00,,,0.00,weatherlink.com 1.10,2013-03-08 13:27:00,
2013-03-08 08:42:00,34.7,30.0,30.39,East,91,0.0,0.0,82,0.00,,,0.00,weatherlink.com 1.10,2013-03-08 13:42:00,
2013-03-08 08:57:00,36.6,31.0,30.40,ENE,77,0.0,1.0,79,0.00,,,0.00,weatherlink.com 1.10,2013-03-08 13:57:00,
2013-03-08 09:12:00,40.3,28.0,30.39,NNE,22,1.0,2.0,61,0.00,,,0.00,weatherlink.com 1.10,2013-03-08 14:12:00,
2013-03-08 09:28:00,44.3,17.0,30.39,NNW,338,4.0,8.0,34,0.00,,,0.00,weatherlink.com 1.10,2013-03-08 14:28:00,
2013-03-08 09:43:00,46.3,11.0,30.39,NNW,340,3.0,9.0,24,0.00,,,0.00,weatherlink.com 1.10,2013-03-08 14:43:00,
2013-03-08 09:58:00,47.7,11.0,30.39,NW,311,2.0,7.0,23,0.00,,,0.00,weatherlink.com 1.10,2013-03-08 14:58:00,
2013-03-08 10:13:00,48.0,9.0,30.39,NW,306,3.0,8.0,20,0.00,,,0.00,weatherlink.com 1.10,2013-03-08 15:13:00,
2013-03-08 10:28:00,48.5,9.0,30.39,NE,56,6.0,7.0,20,0.00,,,0.00,weatherlink.com 1.10,2013-03-08 15:28:00,
2013-03-08 10:43:00,48.8,8.0,30.39,NE,41,2.0,10.0,19,0.00,,,0.00,weatherlink.com 1.10,2013-03-08 15:43:00,
2013-03-08 10:58:00,49.1,8.0,30.39,NNE,20,1.0,8.0,19,0.00,,,0.00,weatherlink.com 1.10,2013-03-08 15:58:00,
2013-03-08 11:13:00,49.7,10.0,30.39,NW,307,5.0,12.0,20,0.00,,,0.00,weatherlink.com 1.10,2013-03-08 16:13:00,
2013-03-08 11:28:00,50.2,10.0,30.38,NW,313,1.0,7.0,20,0.00,,,0.00,weatherlink.com 1.10,2013-03-08 16:28:00,
2013-03-08 11:43:00,51.0,11.0,30.38,NNW,328,5.0,10.0,20,0.00,,,0.00,weatherlink.com 1.10,2013-03-08 16:43:00,
2013-03-08 11:58:00,51.4,11.0,30.38,SW,225,2.0,10.0,20,0.00,,,0.00,weatherlink.com 1.10,2013-03-08 16:58:00,
2013-03-08 12:13:00,52.0,12.0,30.38,WNW,301,2.0,11.0,20,0.00,,,0.00,weatherlink.com 1.10,2013-03-08 17:13:00,
2013-03-08 12:28:00,53.0,13.0,30.37,WNW,299,7.0,12.0,20,0.00,,,0.00,weatherlink.com 1.10,2013-03-08 17:28:00,
2013-03-08 12:43:00,53.8,13.0,30.37,NW,304,2.0,11.0,20,0.00,,,0.00,weatherlink.com 1.10,2013-03-08 17:43:00,
2013-03-08 12:58:00,55.5,16.0,30.36,WSW,252,1.0,9.0,21,0.00,,,0.00,weatherlink.com 1.10,2013-03-08 17:58:00,
2013-03-08 13:13:00,55.7,14.0,30.36,NW,314,2.0,11.0,19,0.00,,,0.00,weatherlink.com 1.10,2013-03-08 18:13:00,
2013-03-08 13:28:00,56.2,24.0,30.36,SSE,148,3.0,8.0,29,0.00,,,0.00,weatherlink.com 1.10,2013-03-08 18:28:00,
2013-03-08 13:43:00,55.3,26.0,30.35,ESE,113,9.0,9.0,32,0.00,,,0.00,weatherlink.com 1.10,2013-03-08 18:43:00,
2013-03-08 13:58:00,55.0,22.0,30.35,West,266,0.0,6.0,28,0.00,,,0.00,weatherlink.com 1.10,2013-03-08 18:58:00,
2013-03-08 14:13:00,56.4,20.0,30.35,WNW,287,4.0,6.0,24,0.00,,,0.00,weatherlink.com 1.10,2013-03-08 19:13:00,
2013-03-08 14:28:00,57.0,17.0,30.35,ENE,75,0.0,9.0,21,0.00,,,0.00,weatherlink.com 1.10,2013-03-08 19:28:00,
2013-03-08 14:43:00,57.2,17.0,30.35,NW,324,0.0,11.0,21,0.00,,,0.00,weatherlink.com 1.10,2013-03-08 19:43:00,
2013-03-08 14:58:00,57.3,16.0,30.35,NNW,342,0.0,8.0,20,0.00,,,0.00,weatherlink.com 1.10,2013-03-08 19:58:00,
2013-03-08 15:13:00,57.7,20.0,30.34,NNW,336,1.0,8.0,23,0.00,,,0.00,weatherlink.com 1.10,2013-03-08 20:13:00,
2013-03-08 15:28:00,57.8,17.0,30.33,NNW,342,4.0,10.0,20,0.00,,,0.00,weatherlink.com 1.10,2013-03-08 20:28:00,
2013-03-08 15:43:00,57.7,17.0,30.33,NNW,336,0.0,11.0,20,0.00,,,0.00,weatherlink.com 1.10,2013-03-08 20:43:00,
2013-03-08 15:58:00,57.5,15.0,30.33,NW,326,2.0,11.0,19,0.00,,,0.00,weatherlink.com 1.10,2013-03-08 20:58:00,
2013-03-08 16:13:00,58.6,20.0,30.33,WSW,252,0.0,5.0,22,0.00,,,0.00,weatherlink.com 1.10,2013-03-08 21:13:00,
2013-03-08 16:28:00,58.4,17.0,30.33,WSW,255,0.0,7.0,20,0.00,,,0.00,weatherlink.com 1.10,2013-03-08 21:28:00,
2013-03-08 16:43:00,58.0,16.0,30.33,NW,307,3.0,7.0,19,0.00,,,0.00,weatherlink.com 1.10,2013-03-08 21:43:00,
2013-03-08 16:58:00,57.1,14.0,30.33,NW,309,0.0,7.0,18,0.00,,,0.00,weatherlink.com 1.10,2013-03-08 21:58:00,
2013-03-08 17:13:00,54.1,19.0,30.34,SW,236,1.0,2.0,25,0.00,,,0.00,weatherlink.com 1.10,2013-03-08 22:13:00,
2013-03-08 17:28:00,52.6,16.0,30.34,WNW,298,0.0,5.0,23,0.00,,,0.00,weatherlink.com 1.10,2013-03-08 22:28:00,
2013-03-08 17:43:00,49.3,22.0,30.34,SW,232,0.0,5.0,34,0.00,,,0.00,weatherlink.com 1.10,2013-03-08 22:43:00,
2013-03-08 17:58:00,48.7,25.0,30.35,SSW,212,1.0,3.0,40,0.00,,,0.00,weatherlink.com 1.10,2013-03-08 22:58:00,
2013-03-08 18:13:00,46.8,28.0,30.36,SW,222,0.0,1.0,49,0.00,,,0.00,weatherlink.com 1.10,2013-03-08 23:13:00,
2013-03-08 18:28:00,44.2,28.0,30.36,SSE,167,0.0,2.0,53,0.00,,,0.00,weatherlink.com 1.10,2013-03-08 23:28:00,
2013-03-08 18:43:00,42.5,29.0,30.36,SSE,148,0.0,1.0,59,0.00,,,0.00,weatherlink.com 1.10,2013-03-08 23:43:00,
2013-03-08 18:59:00,40.8,28.0,30.37,SSE,155,0.0,0.0,60,0.00,,,0.00,weatherlink.com 1.10,2013-03-08 23:59:00,
2013-03-08 19:14:00,39.5,29.0,30.38,SSE,155,0.0,0.0,67,0.00,,,0.00,weatherlink.com 1.10,2013-03-09 00:14:00,
2013-03-08 19:29:00,37.9,28.0,30.39,SSE,155,0.0,0.0,68,0.00,,,0.00,weatherlink.com 1.10,2013-03-09 00:29:00,
2013-03-08 19:44:00,37.1,28.0,30.40,SSE,155,0.0,0.0,71,0.00,,,0.00,weatherlink.com 1.10,2013-03-09 00:44:00,
2013-03-08 19:59:00,36.7,28.0,30.40,SSE,158,0.0,1.0,72,0.00,,,0.00,weatherlink.com 1.10,2013-03-09 00:59:00,
2013-03-08 20:14:00,35.7,28.0,30.41,SSE,158,0.0,1.0,74,0.00,,,0.00,weatherlink.com 1.10,2013-03-09 01:14:00,
2013-03-08 20:29:00,34.5,28.0,30.40,SSE,158,0.0,0.0,78,0.00,,,0.00,weatherlink.com 1.10,2013-03-09 01:29:00,
2013-03-08 20:44:00,33.3,27.0,30.40,SSE,158,0.0,0.0,77,0.00,,,0.00,weatherlink.com 1.10,2013-03-09 01:44:00,
2013-03-08 20:59:00,33.3,27.0,30.40,SSE,158,0.0,1.0,77,0.00,,,0.00,weatherlink.com 1.10,2013-03-09 01:59:00,
2013-03-08 21:14:00,32.6,28.0,30.40,SSE,158,0.0,0.0,82,0.00,,,0.00,weatherlink.com 1.10,2013-03-09 02:14:00,
2013-03-08 21:29:00,31.7,26.0,30.40,SSE,158,0.0,0.0,79,0.00,,,0.00,weatherlink.com 1.10,2013-03-09 02:29:00,
2013-03-08 21:44:00,31.1,26.0,30.40,SSE,158,0.0,0.0,81,0.00,,,0.00,weatherlink.com 1.10,2013-03-09 02:44:00,
2013-03-08 21:59:00,30.5,26.0,30.41,SSE,158,0.0,0.0,82,0.00,,,0.00,weatherlink.com 1.10,2013-03-09 02:59:00,
2013-03-08 22:14:00,29.3,26.0,30.41,SSE,158,0.0,0.0,86,0.00,,,0.00,weatherlink.com 1.10,2013-03-09 03:14:00,
2013-03-08 22:29:00,29.1,25.0,30.41,SSE,158,0.0,0.0,86,0.00,,,0.00,weatherlink.com 1.10,2013-03-09 03:29:00,
2013-03-08 22:44:00,29.4,26.0,30.41,SSE,158,0.0,0.0,85,0.00,,,0.00,weatherlink.com 1.10,2013-03-09 03:44:00,
2013-03-08 22:59:00,29.0,25.0,30.41,SSE,158,0.0,0.0,85,0.00,,,0.00,weatherlink.com 1.10,2013-03-09 03:59:00,
2013-03-08 23:14:00,28.4,25.0,30.41,SSE,158,0.0,0.0,87,0.00,,,0.00,weatherlink.com 1.10,2013-03-09 04:14:00,
2013-03-08 23:29:00,28.2,25.0,30.41,SSE,158,0.0,0.0,88,0.00,,,0.00,weatherlink.com 1.10,2013-03-09 04:29:00,
2013-03-08 23:44:00,27.5,25.0,30.42,SSE,158,0.0,0.0,90,0.00,,,0.00,weatherlink.com 1.10,2013-03-09 04:44:00,
2013-03-08 23:59:00,27.1,25.0,30.42,SSE,158,0.0,0.0,91,0.00,,,0.00,weatherlink.com 1.10,2013-03-09 04:59:00,